createdAt,value
2022-10-02T00:01:49.996Z,99768.50
2022-10-02T00:07:03.249Z,99770.55
2022-10-02T00:12:14.261Z,99768.50
2022-10-02T00:17:23.466Z,99769.30
2022-10-02T00:22:46.816Z,99771.50
2022-10-02T00:28:08.097Z,99776.23
2022-10-02T00:33:23.906Z,99780.74
2022-10-02T00:38:44.954Z,99782.53
2022-10-02T00:44:04.263Z,99784.57
2022-10-02T00:49:37.433Z,99784.35
2022-10-02T00:55:16.832Z,99786.17
2022-10-02T01:00:25.996Z,99787.84
2022-10-02T01:05:34.314Z,99788.58
2022-10-02T01:10:41.764Z,99791.05
2022-10-02T01:15:52.932Z,99792.30
2022-10-02T01:20:59.389Z,99790.70
2022-10-02T01:26:06.125Z,99793.45
2022-10-02T01:31:14.715Z,99797.98
2022-10-02T01:36:23.079Z,99800.11
2022-10-02T01:41:28.911Z,99802.90
2022-10-02T01:46:41.408Z,99802.99
2022-10-02T01:52:10.021Z,99807.41
2022-10-02T01:57:25.268Z,99812.02
2022-10-02T02:02:42.389Z,99817.41
2022-10-02T02:07:58.140Z,99824.59
2022-10-02T02:13:07.833Z,99835.48
2022-10-02T02:18:20.701Z,99838.31
2022-10-02T02:23:31.826Z,99839.53
2022-10-02T02:28:38.170Z,99845.82
2022-10-02T02:33:48.415Z,99839.91
2022-10-02T02:39:00.235Z,99844.58
2022-10-02T02:44:11.219Z,99852.27
2022-10-02T02:49:17.538Z,99853.42
2022-10-02T02:54:29.757Z,99856.19
2022-10-02T02:59:38.347Z,99851.36
2022-10-02T03:04:44.274Z,99849.86
2022-10-02T03:10:01.582Z,99847.88
2022-10-02T03:15:22.974Z,99849.33
2022-10-02T03:20:36.686Z,99853.61
2022-10-02T03:25:48.678Z,99854.98
2022-10-02T03:30:57.691Z,99860.20
2022-10-02T03:36:04.363Z,99863.34
2022-10-02T03:41:10.277Z,99860.61
2022-10-02T03:46:16.085Z,99856.41
2022-10-02T03:51:22.120Z,99857.52
2022-10-02T03:56:36.950Z,99865.67
2022-10-02T04:01:49.140Z,99861.91
2022-10-02T04:07:01.005Z,99863.95
2022-10-02T04:12:12.401Z,99865.77
2022-10-02T04:17:23.950Z,99863.86
2022-10-02T04:22:39.219Z,99869.19
2022-10-02T04:27:49.518Z,99877.20
2022-10-02T04:32:56.757Z,99878.74
2022-10-02T04:38:29.102Z,99884.84
2022-10-02T04:43:53.922Z,99884.18
2022-10-02T04:49:16.624Z,99883.14
2022-10-02T04:54:46.240Z,99886.86
2022-10-02T05:00:07.479Z,99890.14
2022-10-02T05:05:40.661Z,99891.08
2022-10-02T05:11:04.995Z,99892.46
2022-10-02T05:16:28.360Z,99901.63
2022-10-02T05:21:53.117Z,99908.23
2022-10-02T05:27:17.631Z,99907.51
2022-10-02T05:32:41.217Z,99908.58
2022-10-02T05:37:59.613Z,99912.88
2022-10-02T05:43:10.422Z,99919.32
2022-10-02T05:48:23.208Z,99923.70
2022-10-02T05:53:35.180Z,99928.52
2022-10-02T05:58:50.781Z,99934.73
2022-10-02T06:04:02.926Z,99936.02
2022-10-02T06:09:19.559Z,99935.63
2022-10-02T06:14:32.181Z,99937.11
2022-10-02T06:19:44.203Z,99944.27
2022-10-02T06:25:20.009Z,99947.55
2022-10-02T06:30:26.579Z,99946.89
2022-10-02T06:35:54.413Z,99952.24
2022-10-02T06:41:11.739Z,99954.76
2022-10-02T06:46:28.119Z,99958.89
2022-10-02T06:51:45.934Z,99961.97
2022-10-02T06:57:07.104Z,99962.57
2022-10-02T07:07:53.792Z,99979.20
2022-10-02T07:13:14.309Z,99985.36
2022-10-02T07:18:32.727Z,99993.30
2022-10-02T07:24:02.386Z,99997.46
2022-10-02T07:29:37.120Z,99997.56
2022-10-02T07:34:51.916Z,100000.87
2022-10-02T07:40:21.848Z,100005.27
2022-10-02T07:45:36.906Z,100008.70
2022-10-02T07:50:56.460Z,100012.17
2022-10-02T07:56:02.648Z,100016.27
2022-10-02T08:01:16.665Z,100018.21
2022-10-02T08:06:37.839Z,100016.55
2022-10-02T08:11:49.679Z,100016.02
2022-10-02T08:16:58.088Z,100021.23
2022-10-02T08:22:10.293Z,100023.04
2022-10-02T08:27:19.579Z,100028.41
2022-10-02T08:32:34.850Z,100030.84
2022-10-02T08:37:57.816Z,100028.77
2022-10-02T08:43:45.423Z,100031.67
2022-10-02T08:49:31.311Z,100032.80
2022-10-02T08:55:12.537Z,100034.36
2022-10-02T09:00:35.881Z,100037.02
2022-10-02T09:06:15.703Z,100037.08
2022-10-02T09:12:11.198Z,100035.76
2022-10-02T09:17:35.880Z,100034.18
2022-10-02T09:23:12.550Z,100026.41
2022-10-02T09:29:00.098Z,100028.82
2022-10-02T09:34:36.137Z,100029.14
2022-10-02T09:39:59.855Z,100034.48
2022-10-02T09:45:36.669Z,100038.35
2022-10-02T09:51:10.767Z,100034.86
2022-10-02T09:56:49.752Z,100029.73
2022-10-02T10:02:27.538Z,100026.05
2022-10-02T10:08:06.650Z,100021.52
2022-10-02T10:13:46.985Z,100009.91
2022-10-02T10:19:27.283Z,100005.48
2022-10-02T10:24:56.422Z,100001.21
2022-10-02T10:30:21.392Z,99999.86
2022-10-02T10:35:40.366Z,100010.48
2022-10-02T10:41:05.599Z,100006.09
2022-10-02T10:46:42.783Z,100004.02
2022-10-02T10:51:55.361Z,99996.12
2022-10-02T10:57:11.311Z,99985.50
2022-10-02T11:02:54.767Z,99983.35
2022-10-02T11:08:24.448Z,99985.71
2022-10-02T11:13:46.742Z,99988.92
2022-10-02T11:19:20.574Z,99986.65
2022-10-02T11:24:44.194Z,99995.73
2022-10-02T11:30:20.673Z,99989.08
2022-10-02T11:35:35.872Z,99991.09
2022-10-02T11:40:58.001Z,99996.99
2022-10-02T11:46:36.507Z,99993.08
2022-10-02T11:52:00.098Z,99989.10
2022-10-02T11:57:25.900Z,99985.16
2022-10-02T12:02:38.710Z,99984.46
2022-10-02T12:07:55.575Z,99985.58
2022-10-02T12:13:24.673Z,99983.33
2022-10-02T12:18:44.395Z,99979.83
2022-10-02T12:24:14.614Z,99983.52
2022-10-02T12:29:31.492Z,99976.52
2022-10-02T12:34:51.658Z,99975.85
2022-10-02T12:40:10.146Z,99974.48
2022-10-02T12:45:33.421Z,99967.83
2022-10-02T12:51:07.359Z,99969.34
2022-10-02T12:56:43.889Z,99974.84
2022-10-02T13:02:49.173Z,99972.02
2022-10-02T13:08:25.519Z,99973.77
2022-10-02T13:13:54.301Z,99973.55
2022-10-02T13:19:15.918Z,99966.69
2022-10-02T13:24:43.208Z,99966.09
2022-10-02T13:30:01.314Z,99966.83
2022-10-02T13:35:24.952Z,99966.07
2022-10-02T13:40:38.485Z,99960.89
2022-10-02T13:45:53.909Z,99961.55
2022-10-02T13:51:05.368Z,99958.21
2022-10-02T13:56:20.810Z,99956.16
2022-10-02T14:01:37.164Z,99959.61
2022-10-02T14:06:49.010Z,99961.59
2022-10-02T14:12:11.509Z,99957.06
2022-10-02T14:17:26.499Z,99952.81
2022-10-02T14:22:43.274Z,99950.55
2022-10-02T14:28:25.591Z,99942.88
2022-10-02T14:33:42.157Z,99943.80
2022-10-02T14:39:02.113Z,99952.15
2022-10-02T14:44:35.543Z,99944.55
2022-10-02T14:50:13.896Z,99937.95
2022-10-02T14:55:32.626Z,99933.48
2022-10-02T15:00:50.066Z,99932.91
2022-10-02T15:06:11.805Z,99934.66
2022-10-02T15:11:30.068Z,99934.61
2022-10-02T15:17:06.184Z,99931.44
2022-10-02T15:22:20.348Z,99927.86
2022-10-02T15:27:32.334Z,99929.15
2022-10-02T15:33:07.472Z,99937.14
2022-10-02T15:38:38.953Z,99939.08
2022-10-02T15:43:53.620Z,99942.33
2022-10-02T15:49:04.688Z,99944.91
2022-10-02T15:54:24.836Z,99939.77
2022-10-02T15:59:49.732Z,99946.54
2022-10-02T16:05:09.107Z,99948.66
2022-10-02T16:10:24.592Z,99954.81
2022-10-02T16:15:47.100Z,99963.89
2022-10-02T16:21:14.003Z,99963.10
2022-10-02T16:26:35.158Z,99964.76
2022-10-02T16:31:59.962Z,99965.59
2022-10-02T16:37:10.296Z,99965.10
2022-10-02T16:42:32.308Z,99962.36
2022-10-02T16:47:48.008Z,99954.92
2022-10-02T16:52:58.857Z,99955.09
2022-10-02T16:58:21.947Z,99952.13
2022-10-02T17:03:34.501Z,99948.27
2022-10-02T17:08:47.882Z,99949.96
2022-10-02T17:14:11.919Z,99945.25
2022-10-02T17:19:25.929Z,99950.16
2022-10-02T17:24:40.695Z,99952.16
2022-10-02T17:29:58.215Z,99955.75
2022-10-02T17:35:10.252Z,99959.41
2022-10-02T17:40:20.985Z,99959.75
2022-10-02T17:45:37.129Z,99957.15
2022-10-02T17:50:55.332Z,99953.27
2022-10-02T17:56:44.189Z,99950.18
2022-10-02T18:02:00.812Z,99945.25
2022-10-02T18:07:29.651Z,99944.48
2022-10-02T18:13:06.382Z,99944.55
2022-10-02T18:18:30.087Z,99939.23
2022-10-02T18:24:00.687Z,99937.11
2022-10-02T18:29:26.150Z,99936.86
2022-10-02T18:34:54.945Z,99935.91
2022-10-02T18:40:22.354Z,99937.06
2022-10-02T18:45:40.779Z,99937.52
2022-10-02T18:51:04.592Z,99935.23
2022-10-02T18:56:15.105Z,99933.55
2022-10-02T19:01:52.945Z,99937.30
2022-10-02T19:07:07.299Z,99940.02
2022-10-02T19:12:22.216Z,99934.04
2022-10-02T19:17:34.790Z,99928.15
2022-10-02T19:22:41.161Z,99923.30
2022-10-02T19:27:54.003Z,99921.40
2022-10-02T19:33:07.645Z,99915.37
2022-10-02T19:38:25.019Z,99927.69
2022-10-02T19:43:34.481Z,99925.14
2022-10-02T19:48:41.380Z,99929.46
2022-10-02T19:53:53.395Z,99930.39
2022-10-02T19:59:04.671Z,99931.61
2022-10-02T20:04:14.357Z,99928.80
2022-10-02T20:09:24.802Z,99924.33
2022-10-02T20:14:37.076Z,99921.11
2022-10-02T20:19:51.700Z,99919.31
2022-10-02T20:25:03.586Z,99915.61
2022-10-02T20:30:16.782Z,99912.09
2022-10-02T20:35:34.754Z,99918.44
2022-10-02T20:40:47.017Z,99925.14
2022-10-02T20:46:05.508Z,99924.77
2022-10-02T20:51:19.331Z,99926.93
2022-10-02T20:56:38.335Z,99928.34
2022-10-02T21:01:54.644Z,99927.61
2022-10-02T21:07:24.141Z,99931.20
2022-10-02T21:13:19.278Z,99931.59
2022-10-02T21:18:52.497Z,99929.58
2022-10-02T21:24:28.916Z,99931.61
2022-10-02T21:30:02.338Z,99921.14
2022-10-02T21:35:16.838Z,99912.55
2022-10-02T21:41:12.660Z,99911.93
2022-10-02T21:46:47.742Z,99909.64
2022-10-02T21:52:18.283Z,99914.27
2022-10-02T21:58:03.262Z,99920.23
2022-10-02T22:03:45.650Z,99923.73
2022-10-02T22:09:05.360Z,99923.91
2022-10-02T22:14:14.896Z,99925.09
2022-10-02T22:19:48.483Z,99923.52
2022-10-02T22:25:14.014Z,99915.17
2022-10-02T22:30:26.062Z,99910.60
2022-10-02T22:35:47.672Z,99910.25
2022-10-02T22:40:58.025Z,99906.38
2022-10-02T22:46:09.793Z,99907.98
2022-10-02T22:51:20.434Z,99910.52
2022-10-02T22:56:32.025Z,99917.30
2022-10-02T23:01:45.522Z,99918.28
2022-10-02T23:06:58.389Z,99914.96
2022-10-02T23:12:12.766Z,99917.48
2022-10-02T23:17:27.148Z,99909.09
2022-10-02T23:22:37.881Z,99910.13
2022-10-02T23:27:54.675Z,99909.27
2022-10-02T23:33:05.178Z,99909.00
2022-10-02T23:38:23.290Z,99915.16
2022-10-02T23:43:35.321Z,99919.41
2022-10-02T23:48:42.194Z,99917.27
2022-10-02T23:54:15.877Z,99917.04
2022-10-02T23:59:44.173Z,99915.21
